sensor_id;sensor_type;location;lat;lon;timestamp;pressure;altitude;pressure_sealevel;temperature;humidity
9905;BME280;4991;43.566;27.820;2022-07-31T00:00:06;98564.25;;;22.65;100.00
9905;BME280;4991;43.566;27.820;2022-07-31T00:02:32;98569.03;;;22.71;100.00
9905;BME280;4991;43.566;27.820;2022-07-31T00:04:58;98576.63;;;22.81;100.00
9905;BME280;4991;43.566;27.820;2022-07-31T00:07:23;98570.72;;;22.97;100.00
9905;BME280;4991;43.566;27.820;2022-07-31T00:09:48;98575.00;;;22.77;100.00
9905;BME280;4991;43.566;27.820;2022-07-31T00:12:14;98571.44;;;22.76;100.00
9905;BME280;4991;43.566;27.820;2022-07-31T00:14:40;98582.06;;;22.64;100.00
9905;BME280;4991;43.566;27.820;2022-07-31T00:17:05;98586.81;;;22.60;100.00
9905;BME280;4991;43.566;27.820;2022-07-31T00:19:31;98584.81;;;22.57;100.00
9905;BME280;4991;43.566;27.820;2022-07-31T00:21:56;98586.63;;;22.35;100.00
9905;BME280;4991;43.566;27.820;2022-07-31T00:24:23;98593.28;;;22.20;100.00
9905;BME280;4991;43.566;27.820;2022-07-31T00:26:49;98592.41;;;22.13;100.00
9905;BME280;4991;43.566;27.820;2022-07-31T00:29:14;98595.84;;;21.99;100.00
9905;BME280;4991;43.566;27.820;2022-07-31T00:31:40;98598.97;;;21.94;100.00
9905;BME280;4991;43.566;27.820;2022-07-31T00:34:05;98605.31;;;21.91;100.00
9905;BME280;4991;43.566;27.820;2022-07-31T00:36:31;98601.88;;;21.68;100.00
9905;BME280;4991;43.566;27.820;2022-07-31T00:38:57;98604.16;;;21.59;100.00
9905;BME280;4991;43.566;27.820;2022-07-31T00:41:23;98615.25;;;21.55;100.00
9905;BME280;4991;43.566;27.820;2022-07-31T00:43:48;98613.16;;;21.49;100.00
9905;BME280;4991;43.566;27.820;2022-07-31T00:46:14;98624.56;;;21.40;100.00
9905;BME280;4991;43.566;27.820;2022-07-31T00:48:40;98614.25;;;21.41;100.00
9905;BME280;4991;43.566;27.820;2022-07-31T00:51:05;98614.22;;;21.37;100.00
9905;BME280;4991;43.566;27.820;2022-07-31T00:53:30;98604.66;;;21.31;100.00
9905;BME280;4991;43.566;27.820;2022-07-31T00:55:56;98602.75;;;21.35;100.00
9905;BME280;4991;43.566;27.820;2022-07-31T00:58:22;98599.63;;;21.40;100.00
9905;BME280;4991;43.566;27.820;2022-07-31T01:00:47;98601.66;;;21.43;100.00
9905;BME280;4991;43.566;27.820;2022-07-31T01:03:13;98606.81;;;21.45;100.00
9905;BME280;4991;43.566;27.820;2022-07-31T01:05:39;98611.97;;;21.46;100.00
9905;BME280;4991;43.566;27.820;2022-07-31T01:08:06;98616.25;;;21.40;100.00
9905;BME280;4991;43.566;27.820;2022-07-31T01:13:03;98600.75;;;21.36;100.00
9905;BME280;4991;43.566;27.820;2022-07-31T01:15:34;98592.56;;;21.46;100.00
9905;BME280;4991;43.566;27.820;2022-07-31T01:18:03;98597.72;;;21.48;100.00
9905;BME280;4991;43.566;27.820;2022-07-31T01:20:30;98591.41;;;21.51;100.00
9905;BME280;4991;43.566;27.820;2022-07-31T01:31:02;98600.63;;;21.58;100.00
9905;BME280;4991;43.566;27.820;2022-07-31T01:33:37;98602.16;;;21.56;100.00
9905;BME280;4991;43.566;27.820;2022-07-31T01:36:09;98598.94;;;21.50;100.00
9905;BME280;4991;43.566;27.820;2022-07-31T01:38:42;98602.50;;;21.51;100.00
9905;BME280;4991;43.566;27.820;2022-07-31T01:41:10;98603.78;;;21.57;100.00
9905;BME280;4991;43.566;27.820;2022-07-31T01:43:41;98592.38;;;21.65;100.00
9905;BME280;4991;43.566;27.820;2022-07-31T01:46:11;98590.72;;;21.61;100.00
9905;BME280;4991;43.566;27.820;2022-07-31T01:48:38;98586.03;;;21.65;100.00
9905;BME280;4991;43.566;27.820;2022-07-31T01:51:05;98584.00;;;21.58;100.00
9905;BME280;4991;43.566;27.820;2022-07-31T01:53:34;98578.38;;;21.51;100.00
9905;BME280;4991;43.566;27.820;2022-07-31T01:56:01;98578.31;;;21.48;100.00
9905;BME280;4991;43.566;27.820;2022-07-31T01:58:29;98582.38;;;21.57;100.00
9905;BME280;4991;43.566;27.820;2022-07-31T02:00:57;98580.72;;;21.49;100.00
9905;BME280;4991;43.566;27.820;2022-07-31T02:03:24;98579.13;;;21.48;100.00
9905;BME280;4991;43.566;27.820;2022-07-31T02:05:51;98571.97;;;21.47;100.00
9905;BME280;4991;43.566;27.820;2022-07-31T02:08:18;98575.91;;;21.43;100.00
9905;BME280;4991;43.566;27.820;2022-07-31T02:10:44;98571.88;;;21.37;100.00
9905;BME280;4991;43.566;27.820;2022-07-31T02:13:12;98566.72;;;21.35;100.00
9905;BME280;4991;43.566;27.820;2022-07-31T02:15:40;98567.13;;;21.37;100.00
9905;BME280;4991;43.566;27.820;2022-07-31T02:18:08;98563.59;;;21.37;100.00
9905;BME280;4991;43.566;27.820;2022-07-31T02:20:37;98558.78;;;21.30;100.00
9905;BME280;4991;43.566;27.820;2022-07-31T02:23:03;98561.50;;;21.27;100.00
9905;BME280;4991;43.566;27.820;2022-07-31T02:25:29;98558.38;;;21.32;100.00
9905;BME280;4991;43.566;27.820;2022-07-31T02:27:56;98556.03;;;21.34;100.00
9905;BME280;4991;43.566;27.820;2022-07-31T02:30:26;98564.75;;;21.36;100.00
9905;BME280;4991;43.566;27.820;2022-07-31T02:32:52;98560.00;;;21.36;100.00
9905;BME280;4991;43.566;27.820;2022-07-31T02:35:18;98560.44;;;21.38;100.00
9905;BME280;4991;43.566;27.820;2022-07-31T02:37:44;98561.59;;;21.37;100.00
9905;BME280;4991;43.566;27.820;2022-07-31T02:40:13;98563.25;;;21.42;100.00
9905;BME280;4991;43.566;27.820;2022-07-31T02:42:39;98550.50;;;21.37;100.00
9905;BME280;4991;43.566;27.820;2022-07-31T02:45:07;98551.63;;;21.29;100.00
9905;BME280;4991;43.566;27.820;2022-07-31T02:47:35;98552.00;;;21.28;100.00
9905;BME280;4991;43.566;27.820;2022-07-31T02:50:02;98552.47;;;21.33;100.00
9905;BME280;4991;43.566;27.820;2022-07-31T02:52:29;98546.91;;;21.33;100.00
9905;BME280;4991;43.566;27.820;2022-07-31T02:54:57;98541.72;;;21.28;100.00
9905;BME280;4991;43.566;27.820;2022-07-31T02:57:22;98547.19;;;21.21;100.00
9905;BME280;4991;43.566;27.820;2022-07-31T02:59:48;98542.84;;;21.20;100.00
9905;BME280;4991;43.566;27.820;2022-07-31T03:02:13;98532.88;;;21.16;100.00
9905;BME280;4991;43.566;27.820;2022-07-31T03:04:39;98541.59;;;21.18;100.00
9905;BME280;4991;43.566;27.820;2022-07-31T03:07:04;98534.22;;;21.29;100.00
9905;BME280;4991;43.566;27.820;2022-07-31T03:09:30;98534.59;;;21.27;100.00
9905;BME280;4991;43.566;27.820;2022-07-31T03:11:56;98532.34;;;21.40;100.00
9905;BME280;4991;43.566;27.820;2022-07-31T03:14:23;98529.88;;;21.31;100.00
9905;BME280;4991;43.566;27.820;2022-07-31T03:16:50;98529.09;;;21.34;100.00
9905;BME280;4991;43.566;27.820;2022-07-31T03:19:17;98533.88;;;21.37;100.00
9905;BME280;4991;43.566;27.820;2022-07-31T03:21:44;98530.34;;;21.37;100.00
9905;BME280;4991;43.566;27.820;2022-07-31T03:24:10;98531.88;;;21.34;100.00
9905;BME280;4991;43.566;27.820;2022-07-31T03:26:36;98517.22;;;21.30;100.00
9905;BME280;4991;43.566;27.820;2022-07-31T03:29:02;98519.22;;;21.33;100.00
9905;BME280;4991;43.566;27.820;2022-07-31T03:31:27;98516.47;;;21.37;100.00
9905;BME280;4991;43.566;27.820;2022-07-31T03:33:54;98526.78;;;21.40;100.00
9905;BME280;4991;43.566;27.820;2022-07-31T03:36:20;98523.25;;;21.43;100.00
9905;BME280;4991;43.566;27.820;2022-07-31T03:38:45;98519.34;;;21.44;100.00
9905;BME280;4991;43.566;27.820;2022-07-31T03:41:11;98527.22;;;21.42;100.00
9905;BME280;4991;43.566;27.820;2022-07-31T03:43:37;98523.31;;;21.46;100.00
9905;BME280;4991;43.566;27.820;2022-07-31T03:46:03;98522.06;;;21.40;100.00
9905;BME280;4991;43.566;27.820;2022-07-31T03:48:30;98532.44;;;21.50;100.00
9905;BME280;4991;43.566;27.820;2022-07-31T03:50:56;98533.28;;;21.58;100.00
9905;BME280;4991;43.566;27.820;2022-07-31T03:53:22;98526.91;;;21.54;100.00
9905;BME280;4991;43.566;27.820;2022-07-31T03:55:49;98522.50;;;21.46;100.00
9905;BME280;4991;43.566;27.820;2022-07-31T03:58:17;98534.41;;;21.50;100.00
9905;BME280;4991;43.566;27.820;2022-07-31T04:00:44;98524.53;;;21.52;100.00
9905;BME280;4991;43.566;27.820;2022-07-31T04:03:11;98519.00;;;21.52;100.00
9905;BME280;4991;43.566;27.820;2022-07-31T04:05:38;98525.47;;;21.67;100.00
9905;BME280;4991;43.566;27.820;2022-07-31T04:08:08;98522.25;;;21.61;100.00
9905;BME280;4991;43.566;27.820;2022-07-31T04:10:35;98515.13;;;21.64;100.00
9905;BME280;4991;43.566;27.820;2022-07-31T04:13:04;98514.78;;;21.69;100.00
9905;BME280;4991;43.566;27.820;2022-07-31T04:15:30;98508.03;;;21.66;100.00
9905;BME280;4991;43.566;27.820;2022-07-31T04:17:56;98518.31;;;21.66;100.00
9905;BME280;4991;43.566;27.820;2022-07-31T04:20:22;98506.09;;;21.74;100.00
9905;BME280;4991;43.566;27.820;2022-07-31T04:22:47;98505.72;;;21.72;100.00
9905;BME280;4991;43.566;27.820;2022-07-31T04:25:13;98500.56;;;21.74;100.00
9905;BME280;4991;43.566;27.820;2022-07-31T04:27:39;98503.72;;;21.72;100.00
9905;BME280;4991;43.566;27.820;2022-07-31T04:30:05;98503.75;;;21.76;100.00
9905;BME280;4991;43.566;27.820;2022-07-31T04:32:33;98496.34;;;21.84;100.00
9905;BME280;4991;43.566;27.820;2022-07-31T04:34:58;98491.56;;;21.84;100.00
9905;BME280;4991;43.566;27.820;2022-07-31T04:37:23;98499.13;;;21.91;100.00
9905;BME280;4991;43.566;27.820;2022-07-31T04:39:49;98502.34;;;21.96;100.00
9905;BME280;4991;43.566;27.820;2022-07-31T04:42:15;98502.81;;;22.05;100.00
9905;BME280;4991;43.566;27.820;2022-07-31T04:44:40;98504.03;;;22.11;100.00
9905;BME280;4991;43.566;27.820;2022-07-31T04:47:06;98499.72;;;22.21;100.00
9905;BME280;4991;43.566;27.820;2022-07-31T04:49:32;98505.34;;;22.31;100.00
9905;BME280;4991;43.566;27.820;2022-07-31T04:51:58;98491.91;;;22.33;100.00
9905;BME280;4991;43.566;27.820;2022-07-31T04:54:25;98497.50;;;22.47;100.00
9905;BME280;4991;43.566;27.820;2022-07-31T04:56:50;98492.41;;;22.53;100.00
9905;BME280;4991;43.566;27.820;2022-07-31T04:59:17;98485.69;;;22.61;100.00
9905;BME280;4991;43.566;27.820;2022-07-31T05:01:44;98485.75;;;22.71;100.00
9905;BME280;4991;43.566;27.820;2022-07-31T05:04:10;98488.94;;;22.80;100.00
9905;BME280;4991;43.566;27.820;2022-07-31T05:09:04;98483.47;;;22.98;100.00
9905;BME280;4991;43.566;27.820;2022-07-31T05:11:31;98483.47;;;23.12;100.00
9905;BME280;4991;43.566;27.820;2022-07-31T05:13:59;98490.69;;;23.31;100.00
9905;BME280;4991;43.566;27.820;2022-07-31T05:16:26;98482.75;;;23.40;100.00
9905;BME280;4991;43.566;27.820;2022-07-31T05:18:53;98490.31;;;23.46;100.00
9905;BME280;4991;43.566;27.820;2022-07-31T05:21:19;98495.09;;;23.53;100.00
9905;BME280;4991;43.566;27.820;2022-07-31T05:23:46;98484.34;;;23.55;100.00
9905;BME280;4991;43.566;27.820;2022-07-31T05:26:12;98493.09;;;23.64;100.00
9905;BME280;4991;43.566;27.820;2022-07-31T05:28:38;98487.13;;;23.65;100.00
9905;BME280;4991;43.566;27.820;2022-07-31T05:31:05;98486.72;;;23.67;100.00
9905;BME280;4991;43.566;27.820;2022-07-31T05:33:31;98480.78;;;23.75;100.00
9905;BME280;4991;43.566;27.820;2022-07-31T05:35:58;98487.91;;;23.83;100.00
9905;BME280;4991;43.566;27.820;2022-07-31T05:38:25;98487.13;;;23.93;100.00
9905;BME280;4991;43.566;27.820;2022-07-31T05:40:50;98486.31;;;23.96;100.00
9905;BME280;4991;43.566;27.820;2022-07-31T05:43:16;98489.53;;;23.98;100.00
9905;BME280;4991;43.566;27.820;2022-07-31T05:45:41;98490.28;;;24.09;100.00
9905;BME280;4991;43.566;27.820;2022-07-31T05:48:07;98493.44;;;24.26;100.00
9905;BME280;4991;43.566;27.820;2022-07-31T05:50:33;98491.09;;;24.13;100.00
9905;BME280;4991;43.566;27.820;2022-07-31T05:52:58;98490.25;;;24.31;100.00
9905;BME280;4991;43.566;27.820;2022-07-31T05:55:24;98495.03;;;24.30;100.00
9905;BME280;4991;43.566;27.820;2022-07-31T05:57:49;98501.75;;;24.40;100.00
9905;BME280;4991;43.566;27.820;2022-07-31T06:00:15;98486.19;;;24.49;100.00
9905;BME280;4991;43.566;27.820;2022-07-31T06:02:41;98497.72;;;24.69;100.00
9905;BME280;4991;43.566;27.820;2022-07-31T06:05:07;98495.31;;;24.71;100.00
9905;BME280;4991;43.566;27.820;2022-07-31T06:07:33;98484.50;;;24.90;100.00
9905;BME280;4991;43.566;27.820;2022-07-31T06:10:00;98498.41;;;24.90;100.00
9905;BME280;4991;43.566;27.820;2022-07-31T06:12:25;98496.81;;;24.89;100.00
9905;BME280;4991;43.566;27.820;2022-07-31T06:14:51;98492.00;;;24.97;100.00
9905;BME280;4991;43.566;27.820;2022-07-31T06:17:16;98494.75;;;25.04;100.00
9905;BME280;4991;43.566;27.820;2022-07-31T06:19:42;98496.78;;;24.96;100.00
9905;BME280;4991;43.566;27.820;2022-07-31T06:22:07;98495.53;;;25.08;100.00
9905;BME280;4991;43.566;27.820;2022-07-31T06:24:33;98489.91;;;25.15;100.00
9905;BME280;4991;43.566;27.820;2022-07-31T06:26:59;98491.44;;;25.26;100.00
9905;BME280;4991;43.566;27.820;2022-07-31T06:29:25;98491.00;;;25.31;100.00
9905;BME280;4991;43.566;27.820;2022-07-31T06:31:53;98488.56;;;25.40;100.00
9905;BME280;4991;43.566;27.820;2022-07-31T06:34:19;98484.56;;;25.45;100.00
9905;BME280;4991;43.566;27.820;2022-07-31T06:36:44;98486.16;;;25.46;100.00
9905;BME280;4991;43.566;27.820;2022-07-31T06:39:10;98475.78;;;25.50;100.00
9905;BME280;4991;43.566;27.820;2022-07-31T06:41:35;98482.03;;;25.61;100.00
9905;BME280;4991;43.566;27.820;2022-07-31T06:44:18;98478.81;;;25.66;100.00
9905;BME280;4991;43.566;27.820;2022-07-31T06:46:44;98481.88;;;25.79;100.00
9905;BME280;4991;43.566;27.820;2022-07-31T06:49:10;98482.22;;;25.88;100.00
9905;BME280;4991;43.566;27.820;2022-07-31T06:51:36;98481.31;;;26.01;100.00
9905;BME280;4991;43.566;27.820;2022-07-31T06:54:03;98468.50;;;26.07;100.00
9905;BME280;4991;43.566;27.820;2022-07-31T06:56:30;98476.41;;;26.12;100.00
9905;BME280;4991;43.566;27.820;2022-07-31T06:58:56;98469.25;;;26.11;100.00
9905;BME280;4991;43.566;27.820;2022-07-31T07:01:22;98473.56;;;26.19;100.00
9905;BME280;4991;43.566;27.820;2022-07-31T07:03:48;98467.38;;;26.35;100.00
9905;BME280;4991;43.566;27.820;2022-07-31T07:06:13;98459.75;;;26.42;100.00
9905;BME280;4991;43.566;27.820;2022-07-31T07:08:39;98462.69;;;26.62;100.00
9905;BME280;4991;43.566;27.820;2022-07-31T07:11:05;98467.03;;;26.97;100.00
9905;BME280;4991;43.566;27.820;2022-07-31T07:13:30;98456.56;;;27.04;100.00
9905;BME280;4991;43.566;27.820;2022-07-31T07:15:56;98456.13;;;27.36;100.00
9905;BME280;4991;43.566;27.820;2022-07-31T07:18:21;98451.31;;;27.59;100.00
9905;BME280;4991;43.566;27.820;2022-07-31T07:20:48;98451.03;;;27.54;100.00
9905;BME280;4991;43.566;27.820;2022-07-31T07:23:13;98443.31;;;27.61;100.00
9905;BME280;4991;43.566;27.820;2022-07-31T07:25:39;98443.13;;;27.72;100.00
9905;BME280;4991;43.566;27.820;2022-07-31T07:28:05;98440.94;;;27.83;100.00
9905;BME280;4991;43.566;27.820;2022-07-31T07:30:31;98443.63;;;28.13;100.00
9905;BME280;4991;43.566;27.820;2022-07-31T07:32:57;98438.16;;;28.26;100.00
9905;BME280;4991;43.566;27.820;2022-07-31T07:35:24;98436.38;;;28.35;100.00
9905;BME280;4991;43.566;27.820;2022-07-31T07:37:50;98433.19;;;28.56;100.00
9905;BME280;4991;43.566;27.820;2022-07-31T07:40:16;98428.53;;;28.85;100.00
9905;BME280;4991;43.566;27.820;2022-07-31T07:42:41;98439.84;;;29.18;100.00
9905;BME280;4991;43.566;27.820;2022-07-31T07:45:07;98428.63;;;29.18;100.00
9905;BME280;4991;43.566;27.820;2022-07-31T07:47:33;98431.00;;;29.19;100.00
9905;BME280;4991;43.566;27.820;2022-07-31T07:49:59;98423.50;;;28.96;100.00
9905;BME280;4991;43.566;27.820;2022-07-31T07:52:24;98423.91;;;29.15;100.00
9905;BME280;4991;43.566;27.820;2022-07-31T07:54:49;98428.19;;;29.19;100.00
9905;BME280;4991;43.566;27.820;2022-07-31T07:57:19;98429.00;;;29.36;100.00
9905;BME280;4991;43.566;27.820;2022-07-31T07:59:45;98419.38;;;29.53;100.00
9905;BME280;4991;43.566;27.820;2022-07-31T08:02:12;98421.47;;;29.81;100.00
9905;BME280;4991;43.566;27.820;2022-07-31T08:04:38;98427.00;;;29.84;100.00
9905;BME280;4991;43.566;27.820;2022-07-31T08:07:03;98418.72;;;29.93;100.00
9905;BME280;4991;43.566;27.820;2022-07-31T08:09:31;98425.41;;;29.83;100.00
9905;BME280;4991;43.566;27.820;2022-07-31T08:11:58;98423.97;;;30.07;100.00
9905;BME280;4991;43.566;27.820;2022-07-31T08:14:23;98425.09;;;30.26;100.00
9905;BME280;4991;43.566;27.820;2022-07-31T08:16:50;98433.38;;;30.46;100.00
9905;BME280;4991;43.566;27.820;2022-07-31T08:19:15;98432.63;;;30.58;100.00
9905;BME280;4991;43.566;27.820;2022-07-31T08:21:41;98436.56;;;30.31;100.00
9905;BME280;4991;43.566;27.820;2022-07-31T08:24:06;98438.47;;;30.34;100.00
9905;BME280;4991;43.566;27.820;2022-07-31T08:26:32;98440.06;;;30.36;100.00
9905;BME280;4991;43.566;27.820;2022-07-31T08:29:16;98438.06;;;30.20;100.00
9905;BME280;4991;43.566;27.820;2022-07-31T08:31:42;98445.06;;;29.99;100.00
9905;BME280;4991;43.566;27.820;2022-07-31T08:34:09;98439.75;;;30.01;100.00
9905;BME280;4991;43.566;27.820;2022-07-31T08:36:34;98446.56;;;29.88;100.00
9905;BME280;4991;43.566;27.820;2022-07-31T08:39:00;98447.00;;;29.86;100.00
9905;BME280;4991;43.566;27.820;2022-07-31T08:41:27;98452.25;;;29.52;100.00
9905;BME280;4991;43.566;27.820;2022-07-31T08:43:54;98442.78;;;29.78;100.00
9905;BME280;4991;43.566;27.820;2022-07-31T08:46:21;98451.19;;;29.62;100.00
9905;BME280;4991;43.566;27.820;2022-07-31T08:48:49;98453.56;;;29.64;100.00
9905;BME280;4991;43.566;27.820;2022-07-31T08:51:17;98447.00;;;29.86;100.00
9905;BME280;4991;43.566;27.820;2022-07-31T08:53:45;98442.03;;;29.78;100.00
9905;BME280;4991;43.566;27.820;2022-07-31T08:56:12;98442.28;;;29.67;100.00
9905;BME280;4991;43.566;27.820;2022-07-31T08:58:37;98454.50;;;29.25;100.00
9905;BME280;4991;43.566;27.820;2022-07-31T09:01:03;98448.34;;;29.30;100.00
9905;BME280;4991;43.566;27.820;2022-07-31T09:03:29;98441.97;;;29.46;100.00
9905;BME280;4991;43.566;27.820;2022-07-31T09:05:54;98434.72;;;29.48;100.00
9905;BME280;4991;43.566;27.820;2022-07-31T09:08:20;98449.84;;;29.19;100.00
9905;BME280;4991;43.566;27.820;2022-07-31T09:10:45;98441.41;;;29.19;100.00
9905;BME280;4991;43.566;27.820;2022-07-31T09:13:16;98449.50;;;29.17;100.00
9905;BME280;4991;43.566;27.820;2022-07-31T09:15:42;98444.50;;;28.88;100.00
9905;BME280;4991;43.566;27.820;2022-07-31T09:18:19;98445.63;;;28.55;100.00
9905;BME280;4991;43.566;27.820;2022-07-31T09:20:56;98441.94;;;28.39;100.00
9905;BME280;4991;43.566;27.820;2022-07-31T09:23:24;98443.94;;;28.38;100.00
9905;BME280;4991;43.566;27.820;2022-07-31T09:25:58;98437.63;;;28.54;100.00
9905;BME280;4991;43.566;27.820;2022-07-31T09:28:41;98433.97;;;28.57;100.00
9905;BME280;4991;43.566;27.820;2022-07-31T09:31:08;98426.00;;;28.55;100.00
9905;BME280;4991;43.566;27.820;2022-07-31T09:33:35;98429.00;;;28.64;100.00
9905;BME280;4991;43.566;27.820;2022-07-31T09:36:03;98427.41;;;28.83;100.00
9905;BME280;4991;43.566;27.820;2022-07-31T09:38:35;98430.31;;;28.95;100.00
9905;BME280;4991;43.566;27.820;2022-07-31T09:41:12;98420.31;;;29.30;100.00
9905;BME280;4991;43.566;27.820;2022-07-31T09:43:38;98420.31;;;29.30;100.00
9905;BME280;4991;43.566;27.820;2022-07-31T09:46:05;98412.69;;;29.79;100.00
9905;BME280;4991;43.566;27.820;2022-07-31T09:48:32;98427.34;;;29.70;100.00
9905;BME280;4991;43.566;27.820;2022-07-31T09:50:58;98419.97;;;29.92;100.00
9905;BME280;4991;43.566;27.820;2022-07-31T09:53:25;98422.69;;;29.96;100.00
9905;BME280;4991;43.566;27.820;2022-07-31T09:55:52;98413.91;;;29.94;100.00
9905;BME280;4991;43.566;27.820;2022-07-31T09:58:17;98416.47;;;30.17;100.00
9905;BME280;4991;43.566;27.820;2022-07-31T10:00:45;98419.63;;;29.90;100.00
9905;BME280;4991;43.566;27.820;2022-07-31T10:03:12;98425.69;;;29.73;100.00
9905;BME280;4991;43.566;27.820;2022-07-31T10:05:40;98410.06;;;29.40;100.00
9905;BME280;4991;43.566;27.820;2022-07-31T10:08:07;98418.81;;;29.09;100.00
9905;BME280;4991;43.566;27.820;2022-07-31T10:10:33;98412.59;;;28.82;100.00
9905;BME280;4991;43.566;27.820;2022-07-31T10:13:02;98414.19;;;28.83;100.00
9905;BME280;4991;43.566;27.820;2022-07-31T10:15:32;98412.56;;;28.66;100.00
9905;BME280;4991;43.566;27.820;2022-07-31T10:18:00;98409.38;;;28.64;100.00
9905;BME280;4991;43.566;27.820;2022-07-31T10:20:27;98403.91;;;28.77;100.00
9905;BME280;4991;43.566;27.820;2022-07-31T10:23:15;98403.34;;;28.66;100.00
9905;BME280;4991;43.566;27.820;2022-07-31T10:25:44;98406.50;;;28.68;100.00
9905;BME280;4991;43.566;27.820;2022-07-31T10:28:12;98399.91;;;28.58;100.00
9905;BME280;4991;43.566;27.820;2022-07-31T10:30:38;98412.56;;;28.27;100.00
9905;BME280;4991;43.566;27.820;2022-07-31T10:33:03;98405.50;;;28.39;100.00
9905;BME280;4991;43.566;27.820;2022-07-31T10:35:31;98419.22;;;28.33;100.00
9905;BME280;4991;43.566;27.820;2022-07-31T10:38:15;98403.84;;;28.41;100.00
9905;BME280;4991;43.566;27.820;2022-07-31T10:40:55;98410.91;;;28.49;100.00
9905;BME280;4991;43.566;27.820;2022-07-31T10:43:43;98412.75;;;28.56;100.00
9905;BME280;4991;43.566;27.820;2022-07-31T10:46:09;98408.72;;;28.76;100.00
9905;BME280;4991;43.566;27.820;2022-07-31T10:48:35;98417.66;;;28.71;100.00
9905;BME280;4991;43.566;27.820;2022-07-31T10:51:03;98412.81;;;29.07;100.00
9905;BME280;4991;43.566;27.820;2022-07-31T10:53:29;98411.38;;;29.35;100.00
9905;BME280;4991;43.566;27.820;2022-07-31T10:56:02;98408.41;;;29.42;100.00
9905;BME280;4991;43.566;27.820;2022-07-31T10:58:28;98404.44;;;29.24;100.00
9905;BME280;4991;43.566;27.820;2022-07-31T11:01:07;98414.19;;;29.19;100.00
9905;BME280;4991;43.566;27.820;2022-07-31T11:03:39;98401.13;;;29.45;100.00
9905;BME280;4991;43.566;27.820;2022-07-31T11:06:06;98405.59;;;29.74;100.00
9905;BME280;4991;43.566;27.820;2022-07-31T11:08:48;98414.47;;;29.73;100.00
9905;BME280;4991;43.566;27.820;2022-07-31T11:11:14;98410.88;;;29.56;100.00
9905;BME280;4991;43.566;27.820;2022-07-31T11:13:51;98415.88;;;29.65;100.00
9905;BME280;4991;43.566;27.820;2022-07-31T11:16:17;98409.09;;;29.78;100.00
9905;BME280;4991;43.566;27.820;2022-07-31T11:18:44;98406.38;;;29.75;100.00
9905;BME280;4991;43.566;27.820;2022-07-31T11:21:32;98401.06;;;30.09;100.00
9905;BME280;4991;43.566;27.820;2022-07-31T11:23:58;98407.69;;;30.15;100.00
9905;BME280;4991;43.566;27.820;2022-07-31T11:26:24;98403.22;;;29.89;100.00
9905;BME280;4991;43.566;27.820;2022-07-31T11:28:50;98401.63;;;30.16;100.00
9905;BME280;4991;43.566;27.820;2022-07-31T11:31:15;98398.34;;;30.05;100.00
9905;BME280;4991;43.566;27.820;2022-07-31T11:33:45;98396.34;;;30.34;100.00
9905;BME280;4991;43.566;27.820;2022-07-31T11:36:16;98404.84;;;30.60;100.00
9905;BME280;4991;43.566;27.820;2022-07-31T11:38:45;98402.56;;;30.42;100.00
9905;BME280;4991;43.566;27.820;2022-07-31T11:41:11;98398.19;;;30.41;100.00
9905;BME280;4991;43.566;27.820;2022-07-31T11:43:42;98394.13;;;30.96;100.00
9905;BME280;4991;43.566;27.820;2022-07-31T11:46:08;98399.06;;;31.04;100.00
9905;BME280;4991;43.566;27.820;2022-07-31T11:48:37;98388.25;;;31.53;100.00
9905;BME280;4991;43.566;27.820;2022-07-31T11:51:03;98395.69;;;32.28;100.00
9905;BME280;4991;43.566;27.820;2022-07-31T11:53:28;98392.00;;;33.05;97.27
9905;BME280;4991;43.566;27.820;2022-07-31T11:55:59;98379.22;;;33.88;93.67
9905;BME280;4991;43.566;27.820;2022-07-31T11:58:26;98385.63;;;33.71;94.18
9905;BME280;4991;43.566;27.820;2022-07-31T12:03:20;98383.94;;;33.34;97.03
9905;BME280;4991;43.566;27.820;2022-07-31T12:05:47;98380.03;;;33.31;98.27
9905;BME280;4991;43.566;27.820;2022-07-31T12:08:14;98375.34;;;33.37;97.23
9905;BME280;4991;43.566;27.820;2022-07-31T12:10:40;98382.47;;;33.11;96.96
9905;BME280;4991;43.566;27.820;2022-07-31T12:13:13;98374.06;;;33.29;96.66
9905;BME280;4991;43.566;27.820;2022-07-31T12:15:39;98375.75;;;33.27;96.53
9905;BME280;4991;43.566;27.820;2022-07-31T12:18:05;98371.34;;;32.86;96.71
9905;BME280;4991;43.566;27.820;2022-07-31T12:20:31;98367.84;;;33.43;93.51
9905;BME280;4991;43.566;27.820;2022-07-31T12:23:00;98376.41;;;34.52;87.00
9905;BME280;4991;43.566;27.820;2022-07-31T12:25:26;98366.81;;;35.09;82.96
9905;BME280;4991;43.566;27.820;2022-07-31T12:27:53;98366.13;;;34.81;82.98
9905;BME280;4991;43.566;27.820;2022-07-31T12:30:19;98366.69;;;35.36;79.53
9905;BME280;4991;43.566;27.820;2022-07-31T12:32:46;98360.88;;;35.07;79.19
9905;BME280;4991;43.566;27.820;2022-07-31T12:35:12;98370.59;;;35.48;76.76
9905;BME280;4991;43.566;27.820;2022-07-31T12:37:47;98359.31;;;35.62;73.45
9905;BME280;4991;43.566;27.820;2022-07-31T12:40:26;98354.75;;;35.88;72.92
9905;BME280;4991;43.566;27.820;2022-07-31T12:42:53;98354.22;;;36.66;70.60
9905;BME280;4991;43.566;27.820;2022-07-31T12:47:54;98355.91;;;39.56;55.32
9905;BME280;4991;43.566;27.820;2022-07-31T12:50:23;98358.19;;;39.94;54.23
9905;BME280;4991;43.566;27.820;2022-07-31T12:52:49;98356.50;;;39.29;52.53
9905;BME280;4991;43.566;27.820;2022-07-31T12:55:15;98357.97;;;39.19;52.22
9905;BME280;4991;43.566;27.820;2022-07-31T12:57:42;98356.56;;;38.72;52.99
9905;BME280;4991;43.566;27.820;2022-07-31T13:00:10;98352.38;;;39.30;53.42
9905;BME280;4991;43.566;27.820;2022-07-31T13:02:35;98354.19;;;39.33;51.52
9905;BME280;4991;43.566;27.820;2022-07-31T13:05:01;98350.03;;;39.70;49.97
9905;BME280;4991;43.566;27.820;2022-07-31T13:07:26;98343.94;;;38.07;54.18
9905;BME280;4991;43.566;27.820;2022-07-31T13:09:52;98339.50;;;37.66;56.11
9905;BME280;4991;43.566;27.820;2022-07-31T13:12:18;98341.00;;;36.78;60.09
9905;BME280;4991;43.566;27.820;2022-07-31T13:14:44;98345.13;;;36.09;64.47
9905;BME280;4991;43.566;27.820;2022-07-31T13:17:09;98342.38;;;35.53;66.79
9905;BME280;4991;43.566;27.820;2022-07-31T13:19:35;98333.41;;;36.16;65.79